Viejas Grade (78) Station Data

Red Flag Warning: Yes
Fire Weather Zone: 258
SDGE Region: Eastern
Lat/Lon: 32.864/-116.662

Observations

Time Wind Speed/Gust Temp(F) RH Fuel Moist Fuel Temp(F) Dewpt(F) Tmax(F) Tmin(F) Accum Precip 10-min Precip SL Press(mb)
6/27 4:50pm 222 14 G 21 86° 16% - - 34° 91.1° 72.7° - - -
6/27 4:40pm 221 14 G 18 86° 14% - - 32° 91.1° 72.7° - - -
6/27 4:30pm 229 12 G 18 87° 15% - - 33° 91.1° 72.7° - - -
6/27 4:20pm 226 13 G 19 87° 16% - - 35° 91.1° 72.7° - - -
6/27 4:10pm 230 11 G 18 87° 16% - - 35° 91.1° 72.7° - - -
6/27 4:00pm 227 12 G 18 87° 16% - - 35° 91.1° 72.7° - - -
6/27 3:50pm 227 13 G 19 87° 16% - - 36° 91.1° 72.7° - - -
6/27 3:40pm 226 15 G 21 86° 18% - - 38° 91.1° 72.7° - - -
6/27 3:30pm 224 14 G 22 87° 17% - - 37° 91.1° 72.7° - - -
6/27 3:20pm 225 16 G 21 87° 14% - - 33° 91.1° 72.7° - - -
6/27 3:10pm 223 14 G 22 88° 14% - - 33° 91.1° 72.7° - - -
6/27 3:00pm 245 10 G 18 89° 13% - - 31° 91.1° 72.7° - - -
6/27 2:50pm 251 10 G 22 88° 14% - - 33° 91.1° 72.7° - - -
6/27 2:40pm 250 11 G 19 88° 14% - - 34° 91.1° 72.7° - - -
6/27 2:30pm 239 11 G 20 89° 14% - - 33° 91.1° 72.7° - - -
6/27 2:20pm 241 11 G 16 89° 17% - - 37° 91.1° 72.7° - - -
6/27 2:10pm 227 15 G 23 89° 18% - - 40° 91.1° 72.7° - - -
6/27 2:00pm 227 14 G 23 89° 16% - - 36° 91.1° 72.7° - - -
6/27 1:50pm 233 13 G 19 89° 15% - - 35° 91.1° 72.7° - - -
6/27 1:40pm 239 12 G 21 89° 14% - - 34° 91.1° 72.7° - - -
6/27 1:30pm 237 12 G 19 89° 12% - - 31° 91.1° 72.7° - - -
6/27 1:20pm 233 12 G 25 90° 12% - - 29° 91.1° 72.7° - - -
6/27 1:10pm 236 11 G 19 89° 12% - - 29° 90.2° 72.7° - - -
6/27 1:00pm 243 11 G 26 89° 11% - - 28° 90.2° 72.7° - - -
6/27 12:50pm 228 12 G 22 89° 11% - - 28° 90.2° 72.7° - - -
6/27 12:40pm 226 12 G 19 89° 10% - - 26° 90.2° 72.7° - - -
6/27 12:30pm 235 11 G 18 89° 10% - - 26° 90.2° 72.7° - - -
6/27 12:20pm 235 10 G 19 89° 10% - - 25° 90.1° 72.7° - - -
6/27 12:10pm 260 7 G 14 88° 10% - - 25° 89.6° 72.7° - - -
6/27 12:00pm 232 10 G 17 88° 11% - - 26° 89.6° 72.7° - - -
6/27 11:50am 250 9 G 16 88° 11% - - 27° 89.6° 72.7° - - -
6/27 11:40am 265 8 G 14 88° 11% - - 26° 88.9° 72.7° - - -
6/27 11:30am 249 7 G 12 87° 11% - - 25° 88.6° 72.7° - - -
6/27 11:20am 248 8 G 14 87° 10% - - 24° 88° 72.7° - - -
6/27 11:10am 259 7 G 12 86° 10% - - 25° 88° 72.7° - - -
6/27 11:00am 231 10 G 15 87° 10% - - 24° 88° 72.7° - - -
6/27 10:50am 243 8 G 14 87° 10% - - 24° 88° 72.7° - - -
6/27 10:40am 249 6 G 13 87° 10% - - 25° 87.6° 72.7° - - -
6/27 10:30am 284 7 G 12 85° 11% - - 24° 86.9° 72.7° - - -
6/27 10:20am 288 4 G 9 86° 11% - - 25° 86.7° 72.7° - - -
6/27 10:10am 285 6 G 11 85° 11% - - 24° 86° 72.7° - - -
6/27 10:00am 266 6 G 14 85° 11% - - 24° 86° 72.7° - - -
6/27 9:50am 265 5 G 12 85° 11% - - 24° 86° 72.7° - - -
6/27 9:40am 255 4 G 9 85° 11% - - 24° 85.6° 72.7° - - -
6/27 9:30am 291 4 G 9 84° 10% - - 22° 85.4° 72.7° - - -
6/27 9:20am 285 5 G 8 84° 10% - - 22° 85.4° 72.7° - - -
6/27 9:10am 278 5 G 11 84° 10% - - 21° 85.4° 72.7° - - -
6/27 9:00am 287 3 G 10 84° 10% - - 22° 85.4° 72.7° - - -
6/27 8:50am 353 4 G 11 84° 10% - - 22° 85.4° 72.7° - - -
6/27 8:40am 0 3 G 6 84° 10% - - 22° 85.4° 72.7° - - -
6/27 8:30am 32 2 G 5 84° 11% - - 23° 85.4° 72.7° - - -
6/27 8:20am 339 2 G 5 83° 11% - - 23° 84.3° 72.7° - - -
6/27 8:10am 43 3 G 6 83° 11% - - 23° 83.6° 72.7° - - -
6/27 8:00am 34 4 G 7 82° 12% - - 24° 82.9° 72.7° - - -
6/27 7:50am 43 4 G 7 81° 12% - - 24° 81.8° 72.7° - - -
6/27 7:40am 46 5 G 6 80° 13% - - 24° 81.6° 72.7° - - -
6/27 7:30am 48 6 G 7 80° 13% - - 24° 81.6° 72.7° - - -
6/27 7:20am 34 4 G 7 79° 14% - - 25° 81.6° 72.7° - - -
6/27 7:10am 31 6 G 8 78° 14% - - 25° 81.6° 72.7° - - -
6/27 7:00am 35 6 G 8 76° 15% - - 26° 81.6° 72.7° - - -
6/27 6:50am 24 4 G 8 77° 14% - - 24° 81.6° 72.7° - - -
6/27 6:40am 46 5 G 7 74° 15% - - 25° 81.6° 72.7° - - -
6/27 6:30am 40 6 G 8 74° 16% - - 24° 81.6° 72.7° - - -
6/27 6:20am 28 5 G 7 74° 15% - - 23° 81.6° 73° - - -
6/27 6:10am 23 7 G 9 75° 14% - - 22° 81.6° 73° - - -
6/27 6:00am 25 7 G 9 75° 14% - - 22° 81.6° 73° - - -
6/27 5:50am 21 5 G 7 76° 13% - - 21° 81.6° 75.2° - - -
6/27 5:40am 25 5 G 7 76° 13% - - 21° 81.6° 75.2° - - -
6/27 5:30am 7 5 G 7 78° 12% - - 21° 81.6° 75.6° - - -
6/27 5:20am 357 5 G 6 78° 12% - - 21° 81.6° 75.6° - - -
6/27 5:10am 7 5 G 7 77° 13% - - 22° 81.6° 75.6° - - -
6/27 5:00am 2 4 G 8 78° 12% - - 22° 81.6° 77.2° - - -
6/27 4:50am 9 5 G 8 79° 12% - - 22° 81.6° 77.3° - - -
6/27 4:40am 338 4 G 6 80° 11% - - 22° 81.6° 77.3° - - -
6/27 4:30am 327 5 G 8 80° 11% - - 22° 81.6° 77.3° - - -
6/27 4:20am 338 5 G 8 81° 11% - - 22° 81.6° 77.3° - - -
6/27 4:10am 337 6 G 8 81° 11% - - 22° 81.6° 77.3° - - -
6/27 4:00am 321 6 G 9 80° 11% - - 22° 81.6° 77.3° - - -
6/27 3:50am 333 7 G 10 80° 11% - - 22° 81.6° 77.3° - - -
6/27 3:40am 334 6 G 9 80° 11% - - 22° 81.6° 77.3° - - -
6/27 3:30am 342 6 G 10 80° 12% - - 22° 81.6° 77.3° - - -
6/27 3:20am 334 6 G 8 80° 12% - - 22° 81.6° 77.3° - - -
6/27 3:10am 348 7 G 8 80° 12% - - 23° 81.6° 77.3° - - -
6/27 3:00am 339 6 G 8 80° 12% - - 23° 81.6° 77.3° - - -
6/27 2:50am 343 7 G 9 80° 12% - - 23° 81.6° 77.3° - - -
6/27 2:40am 339 7 G 8 80° 12% - - 23° 81.6° 77.3° - - -
6/27 2:30am 330 6 G 10 80° 12% - - 23° 81.6° 77.3° - - -
6/27 2:20am 330 6 G 10 80° 12% - - 23° 81.6° 77.3° - - -
6/27 2:10am 330 6 G 10 80° 12% - - 23° 81.6° 77.3° - - -
6/27 2:00am 329 6 G 12 80° 12% - - 22° 81.6° 77.3° - - -
6/27 1:50am 340 6 G 8 80° 11% - - 21° 81.6° 77.3° - - -
6/27 1:40am 347 5 G 7 79° 11% - - 20° 81.6° 77.3° - - -
6/27 1:30am 355 5 G 8 79° 11% - - 20° 81.6° 77.3° - - -
6/27 1:20am 342 5 G 10 80° 11% - - 21° 81.6° 78.2° - - -
6/27 1:10am 316 6 G 12 80° 12% - - 22° 81.6° 79.2° - - -
6/27 1:00am 302 6 G 11 80° 11% - - 22° 81.6° 79.2° - - -
6/27 12:50am 291 7 G 12 80° 10% - - 19° 81.6° 79.3° - - -
6/27 12:40am 300 6 G 12 80° 9% - - 16° 81.6° 79.3° - - -
6/27 12:30am 309 6 G 11 80° 8% - - 15° 81.6° 79.6° - - -
6/27 12:20am 304 6 G 11 81° 8% - - 15° 81.6° 80° - - -
6/27 12:10am 306 7 G 11 81° 8% - - 15° 81.6° 80.2° - - -
6/27 12:00am 311 6 G 10 81° 8% - - 15° 96.6° 76.3° - - -
6/26 11:50pm 314 7 G 11 81° 9% - - 17° 96.6° 76.3° - - -
6/26 11:40pm 314 6 G 10 82° 9% - - 17° 96.6° 76.3° - - -
6/26 11:30pm 320 7 G 11 82° 9% - - 17° 96.6° 76.3° - - -
6/26 11:20pm 329 6 G 9 82° 9% - - 18° 96.6° 76.3° - - -
6/26 11:10pm 331 5 G 7 82° 9% - - 17° 96.6° 76.3° - - -
6/26 11:00pm 327 4 G 7 82° 9% - - 17° 96.6° 76.3° - - -
6/26 10:50pm 346 4 G 6 81° 9% - - 18° 96.6° 76.3° - - -
6/26 10:40pm 11 4 G 5 80° 11% - - 20° 96.6° 76.3° - - -
6/26 10:30pm 18 4 G 5 80° 11% - - 20° 96.6° 76.3° - - -
6/26 10:20pm 25 5 G 6 80° 11% - - 20° 96.6° 76.3° - - -
6/26 10:10pm 19 4 G 6 80° 11% - - 21° 96.6° 76.3° - - -
6/26 10:00pm 19 4 G 5 79° 12% - - 22° 96.6° 76.3° - - -
6/26 9:50pm 37 3 G 5 78° 13% - - 23° 96.6° 76.3° - - -
6/26 9:40pm 47 2 G 5 78° 14% - - 24° 96.6° 76.3° - - -
6/26 9:30pm 44 3 G 5 77° 15% - - 26° 96.6° 76.3° - - -
6/26 9:20pm 46 3 G 5 77° 15% - - 26° 96.6° 76.7° - - -
6/26 9:10pm 27 3 G 5 80° 13% - - 25° 96.6° 77.1° - - -
6/26 9:00pm 354 3 G 4 81° 12% - - 24° 96.6° 78.6° - - -
6/26 8:50pm 343 2 G 4 81° 12% - - 24° 96.6° 78.6° - - -
6/26 8:40pm 23 1 G 3 81° 14% - - 27° 96.6° 78.6° - - -
6/26 8:30pm 20 2 G 5 81° 14% - - 26° 96.6° 78.6° - - -
6/26 8:20pm 9 3 G 5 82° 13% - - 26° 96.6° 78.6° - - -
6/26 8:10pm 333 4 G 7 82° 13% - - 27° 96.6° 78.6° - - -
6/26 8:00pm 350 5 G 8 82° 13% - - 26° 96.6° 78.6° - - -
6/26 7:50pm 338 6 G 10 83° 13% - - 28° 96.6° 78.6° - - -
6/26 7:40pm 337 5 G 9 83° 16% - - 33° 96.6° 78.6° - - -
6/26 7:30pm 320 4 G 8 84° 16% - - 34° 96.6° 78.6° - - -
6/26 7:20pm 267 5 G 8 85° 15% - - 32° 96.6° 78.6° - - -
6/26 7:10pm 261 5 G 9 87° 13% - - 30° 96.6° 78.6° - - -
6/26 7:00pm 273 7 G 10 88° 13% - - 30° 96.6° 78.6° - - -
6/26 6:50pm 253 6 G 11 89° 12% - - 29° 96.6° 78.6° - - -
6/26 6:40pm 252 6 G 10 89° 11% - - 28° 96.6° 78.6° - - -
6/26 6:30pm 248 8 G 15 90° 10% - - 27° 96.6° 78.6° - - -
6/26 6:20pm 248 8 G 14 90° 10% - - 27° 96.6° 78.6° - - -
6/26 6:10pm 260 7 G 14 91° 10% - - 26° 96.6° 78.6° - - -
6/26 6:00pm 275 9 G 15 91° 9% - - 25° 96.6° 78.6° - - -
6/26 5:50pm 260 9 G 15 91° 9% - - 24° 96.6° 78.6° - - -
6/26 5:40pm 268 10 G 17 91° 9% - - 24° 96.6° 78.6° - - -
6/26 5:30pm 273 14 G 24 91° 9% - - 24° 96.6° 78.6° - - -
6/26 5:20pm 273 12 G 20 92° 9% - - 25° 96.6° 78.6° - - -
6/26 5:10pm 256 9 G 16 93° 9% - - 25° 96.6° 78.6° - - -
6/26 5:00pm 271 9 G 17 93° 9% - - 25° 96.6° 78.6° - - -
6/26 4:50pm 250 11 G 19 94° 8% - - 25° 96.6° 78.6° - - -
6/26 4:40pm 262 9 G 18 94° 8% - - 25° 96.6° 78.6° - - -
6/26 4:30pm 253 9 G 18 95° 8% - - 25° 96.6° 78.6° - - -
6/26 4:20pm 273 8 G 20 94° 8% - - 24° 96.6° 78.6° - - -
6/26 4:10pm 252 10 G 24 95° 8% - - 25° 96.6° 78.6° - - -
6/26 4:00pm 269 7 G 15 95° 9% - - 26° 96.6° 78.6° - - -
6/26 3:50pm 274 6 G 17 95° 9% - - 27° 96.6° 78.6° - - -
6/26 3:40pm 264 8 G 16 95° 10% - - 30° 96.6° 78.6° - - -
6/26 3:30pm 272 10 G 21 94° 11% - - 31° 96.6° 78.6° - - -
6/26 3:20pm 253 11 G 22 95° 11% - - 31° 96.6° 78.6° - - -
6/26 3:10pm 260 9 G 18 95° 11% - - 33° 96.6° 78.6° - - -
6/26 3:00pm 261 9 G 20 95° 11% - - 32° 96.6° 78.6° - - -
6/26 2:50pm 249 10 G 25 94° 12% - - 34° 96.6° 78.6° - - -
6/26 2:40pm 272 10 G 20 94° 12% - - 35° 96.6° 78.6° - - -
6/26 2:30pm 262 9 G 16 94° 13% - - 37° 96.6° 78.6° - - -
6/26 2:20pm 260 9 G 19 94° 14% - - 37° 96.6° 78.6° - - -
6/26 2:10pm 258 7 G 14 94° 14% - - 37° 96.6° 78.6° - - -
6/26 2:00pm 265 9 G 16 94° 13% - - 36° 96.6° 78.6° - - -
6/26 1:50pm 267 9 G 17 94° 14% - - 38° 96.6° 78.6° - - -
6/26 1:40pm 279 8 G 17 93° 13% - - 35° 96.6° 78.6° - - -
6/26 1:30pm 269 8 G 15 95° 12% - - 35° 96.6° 78.6° - - -
6/26 1:20pm 268 8 G 14 95° 12% - - 35° 96.5° 78.6° - - -
6/26 1:10pm 273 7 G 15 94° 13% - - 35° 96.5° 78.6° - - -
6/26 1:00pm 271 6 G 15 95° 12% - - 34° 96.5° 78.6° - - -
6/26 12:50pm 271 6 G 15 95° 11% - - 32° 96.4° 78.6° - - -
6/26 12:40pm 271 9 G 18 94° 11% - - 32° 96.4° 78.6° - - -
6/26 12:30pm 278 6 G 14 95° 11% - - 31° 96.4° 78.6° - - -
6/26 12:20pm 249 7 G 17 95° 10% - - 30° 96.4° 78.6° - - -
6/26 12:10pm 299 6 G 18 94° 9% - - 27° 96.2° 78.6° - - -
6/26 12:00pm 286 5 G 11 95° 9% - - 28° 96.2° 78.6° - - -
6/26 11:50am 284 6 G 14 94° 9% - - 27° 94.9° 78.6° - - -
6/26 11:40am 284 5 G 11 94° 10% - - 30° 94.8° 78.6° - - -
6/26 11:30am 291 4 G 17 94° 11% - - 30° 94.8° 78.6° - - -
6/26 11:20am 257 5 G 18 93° 11% - - 31° 94.4° 78.6° - - -
6/26 11:10am 273 6 G 12 93° 12% - - 32° 94.2° 78.6° - - -
6/26 11:00am 272 6 G 14 93° 12% - - 32° 93.9° 78.6° - - -
6/26 10:50am 268 6 G 15 93° 12% - - 33° 93.9° 78.6° - - -
6/26 10:40am 304 5 G 11 92° 12% - - 32° 93.5° 78.6° - - -
6/26 10:30am 289 3 G 10 93° 12% - - 33° 93.5° 78.6° - - -
6/26 10:20am 268 4 G 10 93° 13% - - 34° 93.5° 78.6° - - -
6/26 10:10am 284 4 G 9 92° 13% - - 34° 92.8° 78.6° - - -
6/26 10:00am 272 4 G 9 92° 14% - - 35° 92.8° 78.6° - - -
6/26 9:50am 277 3 G 9 91° 14% - - 35° 92.6° 78.6° - - -
6/26 9:40am 249 3 G 9 91° 14% - - 35° 92° 78.6° - - -
6/26 9:30am 272 5 G 10 90° 15% - - 36° 92° 78.6° - - -
6/26 9:20am 228 3 G 7 91° 15% - - 36° 92° 78.6° - - -
6/26 9:10am 250 3 G 6 91° 14% - - 35° 92° 78.6° - - -
6/26 9:00am 274 2 G 5 91° 13% - - 33° 92° 78.6° - - -
6/26 8:50am 303 2 G 5 91° 13% - - 33° 92° 78.6° - - -
6/26 8:40am 350 3 G 7 91° 14% - - 34° 91.5° 78.6° - - -
6/26 8:30am 53 3 G 6 90° 15% - - 36° 91.3° 78.6° - - -
6/26 8:20am 76 4 G 5 89° 17% - - 38° 89.9° 78.6° - - -
6/26 8:10am 96 3 G 4 88° 17% - - 38° 88.7° 78.6° - - -
6/26 8:00am 93 4 G 6 87° 17% - - 37° 88.1° 78.6° - - -
6/26 7:50am 86 4 G 7 86° 16% - - 35° 87.6° 78.6° - - -
6/26 7:40am 84 5 G 7 85° 18% - - 37° 85.9° 78.6° - - -
6/26 7:30am 83 5 G 7 85° 18% - - 36° 85.8° 78.6° - - -
6/26 7:20am 80 5 G 7 83° 20% - - 37° 84.5° 78.6° - - -
6/26 7:10am 73 5 G 6 83° 20% - - 37° 84.5° 78.6° - - -
6/26 7:00am 72 4 G 5 83° 18% - - 35° 84.5° 78.6° - - -
6/26 6:50am 58 4 G 5 83° 19% - - 36° 84.5° 78.6° - - -
6/26 6:40am 61 4 G 6 83° 17% - - 34° 84.5° 78.6° - - -
6/26 6:30am 59 4 G 6 82° 18% - - 34° 84.5° 78.6° - - -
6/26 6:20am 52 4 G 7 82° 17% - - 34° 84.5° 78.6° - - -
6/26 6:10am 70 6 G 7 81° 18% - - 34° 84.5° 78.6° - - -
6/26 6:00am 62 4 G 6 81° 18% - - 34° 84.5° 78.6° - - -